Terminal Aerodrome Forecast
Issued by NWS

Home | Current Version | Previous Version | Graphics & Text | Print | Product List | Glossary On
Versions: 1 2 3 4 5 6 7 8 9 10 11 12 13
000
FTUS43 KOAX 301720
TAFCDR
TAF
KCDR 301720Z 3018/0118 VRB05KT P6SM BKN150
     FM302100 03010KT P6SM SCT070
     FM010300 23005KT P6SM SKC=

USA.gov is the U.S. government's official web portal to all federal, state and local government web resources and services.